»·PEaware :: N651DY KTRM-KKNB

N651DY :: KTRM-KKNB

FLIGHT INFORMATION

Flight Status: Arrived
Operator: Privately registered:
United States
More flights under this callsign
Pilot: Bill H. (17578)
Aircraft: BEECH AIRCRAFT BARON
(BE58)
More flights by this aircraft type
Origin: KTRM Desert Resorts Regl
United States
Destination: KKNB Kanab Mun
United States
More flights between these airports :: More routes between these airports
Route: MECCA1 CONES V514 LYNSY V8 JITKA
File this flight plan on PilotEdge
Remarks: LAX ALPHABET CHALLENGE
Altitude:
(Current/Filed)
13,000ft
Speed:
(Current/Filed)
180kts
Departed: 12-Jan-18 08:16 PM
Arrived: 12-Jan-18 10:10 PM
Distance/Time
Traveled:
270nm/1:53
Distance/Time
To Go:
Arrived

Flight Plot

Page will automatically refresh every two minutes.

Flight plan parsing failed; only flown route is shown


Map Options




Map Legend


Flown Route
Filed Route
Departure Airport
Arrival Airport
Navaid (VOR, NDB)
Fix

Horizontal Profiles

Position Reports

Time Latitude Longitude Heading Altitude Ground
Speed
12-Jan-18 20:07 33.634975 -116.163029 90 -107ft 0kts
12-Jan-18 20:08 33.634975 -116.163029 90 -107ft 0kts
12-Jan-18 20:09 33.634975 -116.162926 90 -107ft 4kts
12-Jan-18 20:10 33.634132 -116.160427 90 -107ft 14kts
12-Jan-18 20:11 33.636969 -116.157718 359 -107ft 19kts
12-Jan-18 20:12 33.639174 -116.157592 114 -107ft 0kts
12-Jan-18 20:13 33.639174 -116.157592 114 -107ft 0kts
12-Jan-18 20:14 33.639173 -116.157592 114 -107ft 0kts
12-Jan-18 20:15 33.639173 -116.157592 114 -107ft 0kts
12-Jan-18 20:16 33.639174 -116.157592 114 -107ft 0kts
12-Jan-18 20:17 33.639174 -116.157592 114 -107ft 0kts
12-Jan-18 20:18 33.639174 -116.157592 114 -107ft 0kts
12-Jan-18 20:19 33.639174 -116.157592 114 -107ft 0kts
12-Jan-18 20:20 33.639174 -116.157592 114 -107ft 0kts
12-Jan-18 20:21 33.638645 -116.156397 180 -107ft 0kts
12-Jan-18 20:22 33.616543 -116.156987 179 529ft 133kts
12-Jan-18 20:23 33.611266 -116.121295 28 1577ft 157kts
12-Jan-18 20:24 33.651030 -116.119121 358 2772ft 151kts
12-Jan-18 20:25 33.691852 -116.118955 0 3920ft 145kts
12-Jan-18 20:26 33.735096 -116.118645 0 4677ft 152kts
12-Jan-18 20:27 33.774671 -116.118415 0 5835ft 136kts
12-Jan-18 20:28 33.799801 -116.094471 65 6931ft 130kts
12-Jan-18 20:29 33.812325 -116.053016 66 7938ft 138kts
12-Jan-18 20:30 33.826498 -116.008781 51 8814ft 140kts
12-Jan-18 20:31 33.849420 -115.972762 48 9786ft 133kts
12-Jan-18 20:32 33.876378 -115.944886 31 10639ft 129kts
12-Jan-18 20:33 33.906512 -115.922610 27 11400ft 129kts
12-Jan-18 20:34 33.936863 -115.901016 27 12092ft 129kts
12-Jan-18 20:35 33.967861 -115.879174 25 12724ft 130kts
12-Jan-18 20:36 34.001671 -115.856923 25 12932ft 154kts
12-Jan-18 20:37 34.041410 -115.830775 29 12966ft 171kts
12-Jan-18 20:38 34.081444 -115.798871 30 13002ft 177kts
12-Jan-18 20:39 34.121359 -115.766981 30 13011ft 179kts
12-Jan-18 20:40 34.153309 -115.723186 42 13011ft 182kts
12-Jan-18 20:41 34.187980 -115.679203 42 13010ft 183kts
12-Jan-18 20:42 34.228118 -115.643071 29 13010ft 180kts
12-Jan-18 20:43 34.268251 -115.607364 36 13010ft 181kts
12-Jan-18 20:44 34.305317 -115.566295 46 13009ft 183kts
12-Jan-18 20:45 34.331174 -115.513262 58 13010ft 186kts
12-Jan-18 20:46 34.369675 -115.476740 34 13010ft 180kts
12-Jan-18 20:47 34.410276 -115.446698 350 13025ft 174kts
12-Jan-18 20:48 34.450106 -115.455659 350 13009ft 176kts
12-Jan-18 20:49 34.505618 -115.448812 13 13009ft 177kts
12-Jan-18 20:50 34.552231 -115.430623 17 13074ft 173kts
12-Jan-18 20:51 34.590020 -115.414401 17 13087ft 176kts
12-Jan-18 20:52 34.636002 -115.394365 17 13055ft 178kts
12-Jan-18 20:53 34.682101 -115.374191 17 13028ft 178kts
12-Jan-18 20:54 34.727952 -115.354123 17 13008ft 178kts
12-Jan-18 20:55 34.778639 -115.331881 18 13007ft 177kts
12-Jan-18 20:56 34.815534 -115.315660 18 13007ft 177kts
12-Jan-18 20:57 34.861594 -115.295457 18 13007ft 177kts
12-Jan-18 20:58 34.906608 -115.275615 17 13007ft 177kts
12-Jan-18 20:59 34.951163 -115.255906 16 13006ft 176kts
12-Jan-18 21:00 34.991657 -115.238046 16 13006ft 176kts
12-Jan-18 21:01 35.037170 -115.217950 15 13005ft 176kts
12-Jan-18 21:02 35.082298 -115.198042 15 13003ft 176kts
12-Jan-18 21:03 35.119133 -115.181792 15 13006ft 177kts
12-Jan-18 21:04 35.156924 -115.156085 28 13004ft 181kts
12-Jan-18 21:05 35.198712 -115.123200 29 13001ft 181kts
12-Jan-18 21:06 35.240257 -115.090419 29 13013ft 180kts
12-Jan-18 21:07 35.279794 -115.059159 30 13021ft 181kts
12-Jan-18 21:08 35.319834 -115.027450 30 13022ft 181kts
12-Jan-18 21:09 35.359539 -114.995963 31 13016ft 182kts
12-Jan-18 21:10 35.400687 -114.963302 31 13022ft 183kts
12-Jan-18 21:11 35.441253 -114.931036 31 13038ft 183kts
12-Jan-18 21:12 35.482020 -114.898589 31 13050ft 183kts
12-Jan-18 21:13 35.522444 -114.866396 31 13056ft 184kts
12-Jan-18 21:14 35.559208 -114.837093 31 13055ft 184kts
12-Jan-18 21:15 35.599982 -114.804517 31 13060ft 184kts
12-Jan-18 21:16 35.637695 -114.774359 31 12979ft 187kts
12-Jan-18 21:17 35.677393 -114.742619 31 12994ft 184kts
12-Jan-18 21:18 35.718127 -114.709979 31 12999ft 184kts
12-Jan-18 21:19 35.756329 -114.679328 31 12999ft 184kts
12-Jan-18 21:20 35.795742 -114.647668 31 12998ft 184kts
12-Jan-18 21:21 35.836761 -114.614664 32 12998ft 184kts
12-Jan-18 21:22 35.880850 -114.590356 15 12998ft 183kts
12-Jan-18 21:23 35.925572 -114.574760 15 12998ft 183kts
12-Jan-18 21:24 35.968126 -114.559904 15 12998ft 183kts
12-Jan-18 21:25 36.012080 -114.544574 15 12998ft 183kts
12-Jan-18 21:26 36.058798 -114.528251 15 12998ft 183kts
12-Jan-18 21:27 36.102775 -114.512864 15 12998ft 183kts
12-Jan-18 21:28 36.141752 -114.499211 15 13000ft 184kts
12-Jan-18 21:29 36.187192 -114.483279 15 13009ft 184kts
12-Jan-18 21:30 36.233261 -114.467116 15 13009ft 184kts
12-Jan-18 21:31 36.279642 -114.450809 15 13009ft 184kts
12-Jan-18 21:32 36.328056 -114.433757 15 13009ft 184kts
12-Jan-18 21:33 36.376420 -114.416714 15 13009ft 184kts
12-Jan-18 21:34 36.425128 -114.399517 15 13008ft 184kts
12-Jan-18 21:35 36.472227 -114.382871 15 13008ft 184kts
12-Jan-18 21:36 36.518793 -114.366394 15 13011ft 183kts
12-Jan-18 21:37 36.566603 -114.349456 16 13015ft 183kts
12-Jan-18 21:38 36.611359 -114.333578 16 13021ft 183kts
12-Jan-18 21:39 36.657809 -114.317083 16 13027ft 183kts
12-Jan-18 21:40 36.706161 -114.299889 16 13029ft 183kts
12-Jan-18 21:41 36.748363 -114.284863 16 13030ft 183kts
12-Jan-18 21:42 36.783257 -114.246745 55 13035ft 186kts
12-Jan-18 21:43 36.809261 -114.193778 56 13035ft 186kts
12-Jan-18 21:44 36.834647 -114.140932 56 13035ft 186kts
12-Jan-18 21:45 36.860740 -114.086364 56 13035ft 186kts
12-Jan-18 21:46 36.886631 -114.032108 56 13035ft 186kts
12-Jan-18 21:47 36.912663 -113.977462 56 13035ft 186kts
12-Jan-18 21:48 36.938662 -113.922797 56 13035ft 186kts
12-Jan-18 21:49 36.964895 -113.867538 57 13035ft 186kts
12-Jan-18 21:50 36.990347 -113.813774 56 12998ft 188kts
12-Jan-18 21:51 37.015154 -113.761512 56 12998ft 188kts
12-Jan-18 21:52 37.039929 -113.708980 56 12998ft 189kts
12-Jan-18 21:53 37.064104 -113.657707 56 12998ft 190kts
12-Jan-18 21:54 37.089381 -113.604025 56 12998ft 192kts
12-Jan-18 21:55 37.097237 -113.541662 92 12999ft 198kts
12-Jan-18 21:56 37.092075 -113.475560 92 12998ft 199kts
12-Jan-18 21:57 37.086753 -113.410404 92 12998ft 199kts
12-Jan-18 21:58 37.081264 -113.343900 93 12998ft 198kts
12-Jan-18 21:59 37.075897 -113.279606 93 12970ft 200kts
12-Jan-18 22:00 37.070091 -113.210011 93 12317ft 219kts
12-Jan-18 22:01 37.063807 -113.135583 94 11605ft 210kts
12-Jan-18 22:02 37.057961 -113.066568 94 10893ft 196kts
12-Jan-18 22:03 37.052297 -113.000590 93 10179ft 187kts
12-Jan-18 22:04 37.047169 -112.940863 93 10048ft 162kts
12-Jan-18 22:05 37.042602 -112.887855 92 10050ft 150kts
12-Jan-18 22:06 37.037474 -112.837276 95 9966ft 146kts
12-Jan-18 22:07 37.029818 -112.785883 97 9303ft 151kts
12-Jan-18 22:08 37.023725 -112.736446 87 8810ft 127kts
12-Jan-18 22:09 37.021128 -112.691802 88 8346ft 130kts
12-Jan-18 22:10 37.020314 -112.646672 87 7759ft 131kts
12-Jan-18 22:11 37.019954 -112.602895 84 7117ft 118kts
12-Jan-18 22:12 36.999817 -112.584387 204 6334ft 132kts
12-Jan-18 22:13 36.969146 -112.590452 109 6051ft 123kts
12-Jan-18 22:14 36.969512 -112.554998 53 5403ft 107kts
12-Jan-18 22:15 36.994218 -112.539387 22 4982ft 103kts
12-Jan-18 22:16 37.011663 -112.530869 57 4836ft 13kts
12-Jan-18 22:17 37.010388 -112.530435 162 4835ft 4kts
12-Jan-18 22:18 37.009990 -112.530373 282 4834ft 0kts

Navigation Log

Ident Type
Flight plan parsing failed, navigation log unavailable